sensor_id;sensor_type;location;lat;lon;timestamp;temperature;humidity
57636;DHT22;43465;50.728;4.160;2023-05-10T00:00:33;14.50;99.90
57636;DHT22;43465;50.728;4.160;2023-05-10T00:02:59;14.50;99.90
57636;DHT22;43465;50.728;4.160;2023-05-10T00:05:25;14.50;99.90
57636;DHT22;43465;50.728;4.160;2023-05-10T00:07:50;14.50;99.90
57636;DHT22;43465;50.728;4.160;2023-05-10T00:10:16;14.50;99.90
57636;DHT22;43465;50.728;4.160;2023-05-10T00:12:42;14.60;99.90
57636;DHT22;43465;50.728;4.160;2023-05-10T00:15:08;14.60;99.90
57636;DHT22;43465;50.728;4.160;2023-05-10T00:17:34;14.50;99.90
57636;DHT22;43465;50.728;4.160;2023-05-10T00:20:00;14.50;99.90
57636;DHT22;43465;50.728;4.160;2023-05-10T00:22:25;14.50;99.90
57636;DHT22;43465;50.728;4.160;2023-05-10T00:24:51;14.50;99.90
57636;DHT22;43465;50.728;4.160;2023-05-10T00:27:17;14.50;99.90
57636;DHT22;43465;50.728;4.160;2023-05-10T00:29:42;14.50;99.90
57636;DHT22;43465;50.728;4.160;2023-05-10T00:32:08;14.50;99.90
57636;DHT22;43465;50.728;4.160;2023-05-10T00:34:34;14.60;99.90
57636;DHT22;43465;50.728;4.160;2023-05-10T00:36:59;14.60;99.90
57636;DHT22;43465;50.728;4.160;2023-05-10T00:39:25;14.60;99.90
57636;DHT22;43465;50.728;4.160;2023-05-10T00:41:52;14.50;99.90
57636;DHT22;43465;50.728;4.160;2023-05-10T00:44:17;14.60;99.90
57636;DHT22;43465;50.728;4.160;2023-05-10T00:46:44;14.50;99.90
57636;DHT22;43465;50.728;4.160;2023-05-10T00:49:10;14.50;99.90
57636;DHT22;43465;50.728;4.160;2023-05-10T00:51:36;14.50;99.90
57636;DHT22;43465;50.728;4.160;2023-05-10T00:54:02;14.60;99.90
57636;DHT22;43465;50.728;4.160;2023-05-10T00:56:28;14.60;99.90
57636;DHT22;43465;50.728;4.160;2023-05-10T00:58:55;14.60;99.90
57636;DHT22;43465;50.728;4.160;2023-05-10T01:01:21;14.60;99.90
57636;DHT22;43465;50.728;4.160;2023-05-10T01:03:47;14.50;99.90
57636;DHT22;43465;50.728;4.160;2023-05-10T01:06:13;14.50;99.90
57636;DHT22;43465;50.728;4.160;2023-05-10T01:08:39;14.50;99.90
57636;DHT22;43465;50.728;4.160;2023-05-10T01:11:05;14.50;99.90
57636;DHT22;43465;50.728;4.160;2023-05-10T01:13:32;14.50;99.90
57636;DHT22;43465;50.728;4.160;2023-05-10T01:15:59;14.50;99.90
57636;DHT22;43465;50.728;4.160;2023-05-10T01:18:29;14.50;99.90
57636;DHT22;43465;50.728;4.160;2023-05-10T01:21:23;14.50;99.90
57636;DHT22;43465;50.728;4.160;2023-05-10T01:34:53;14.50;99.90
57636;DHT22;43465;50.728;4.160;2023-05-10T01:37:25;14.40;99.90
57636;DHT22;43465;50.728;4.160;2023-05-10T01:40:19;14.40;99.90
57636;DHT22;43465;50.728;4.160;2023-05-10T01:42:51;14.40;99.90
57636;DHT22;43465;50.728;4.160;2023-05-10T01:45:24;14.40;99.90
57636;DHT22;43465;50.728;4.160;2023-05-10T01:48:05;14.40;99.90
57636;DHT22;43465;50.728;4.160;2023-05-10T01:50:32;14.40;99.90
57636;DHT22;43465;50.728;4.160;2023-05-10T01:53:00;14.40;99.90
57636;DHT22;43465;50.728;4.160;2023-05-10T01:55:30;14.30;99.90
57636;DHT22;43465;50.728;4.160;2023-05-10T01:58:06;14.30;99.90
57636;DHT22;43465;50.728;4.160;2023-05-10T02:00:34;14.30;99.90
57636;DHT22;43465;50.728;4.160;2023-05-10T02:03:04;14.30;99.90
57636;DHT22;43465;50.728;4.160;2023-05-10T02:05:32;14.30;99.90
57636;DHT22;43465;50.728;4.160;2023-05-10T02:07:59;14.30;99.90
57636;DHT22;43465;50.728;4.160;2023-05-10T02:10:28;14.40;99.90
57636;DHT22;43465;50.728;4.160;2023-05-10T02:12:55;14.30;99.90
57636;DHT22;43465;50.728;4.160;2023-05-10T02:15:24;14.30;99.90
57636;DHT22;43465;50.728;4.160;2023-05-10T02:17:52;14.30;99.90
57636;DHT22;43465;50.728;4.160;2023-05-10T02:20:20;14.30;99.90
57636;DHT22;43465;50.728;4.160;2023-05-10T02:22:49;14.30;99.90
57636;DHT22;43465;50.728;4.160;2023-05-10T02:25:18;14.20;99.90
57636;DHT22;43465;50.728;4.160;2023-05-10T02:27:44;14.20;99.90
57636;DHT22;43465;50.728;4.160;2023-05-10T02:30:12;14.10;99.90
57636;DHT22;43465;50.728;4.160;2023-05-10T02:32:39;14.20;99.90
57636;DHT22;43465;50.728;4.160;2023-05-10T02:35:05;14.20;99.90
57636;DHT22;43465;50.728;4.160;2023-05-10T02:37:31;14.20;99.90
57636;DHT22;43465;50.728;4.160;2023-05-10T02:39:58;14.20;99.90
57636;DHT22;43465;50.728;4.160;2023-05-10T02:42:27;14.20;99.90
57636;DHT22;43465;50.728;4.160;2023-05-10T02:44:59;14.20;99.90
57636;DHT22;43465;50.728;4.160;2023-05-10T02:47:25;14.20;99.90
57636;DHT22;43465;50.728;4.160;2023-05-10T02:49:51;14.20;99.90
57636;DHT22;43465;50.728;4.160;2023-05-10T02:52:22;14.20;99.90
57636;DHT22;43465;50.728;4.160;2023-05-10T02:54:50;14.30;99.90
57636;DHT22;43465;50.728;4.160;2023-05-10T02:57:27;14.40;99.90
57636;DHT22;43465;50.728;4.160;2023-05-10T02:59:54;14.30;99.90
57636;DHT22;43465;50.728;4.160;2023-05-10T03:02:21;14.30;99.90
57636;DHT22;43465;50.728;4.160;2023-05-10T03:04:46;14.30;99.90
57636;DHT22;43465;50.728;4.160;2023-05-10T03:07:13;14.30;99.90
57636;DHT22;43465;50.728;4.160;2023-05-10T03:09:39;14.30;99.90
57636;DHT22;43465;50.728;4.160;2023-05-10T03:12:33;14.30;99.90
57636;DHT22;43465;50.728;4.160;2023-05-10T03:20:26;14.20;99.90
57636;DHT22;43465;50.728;4.160;2023-05-10T03:23:07;14.20;99.90
57636;DHT22;43465;50.728;4.160;2023-05-10T03:25:35;14.20;99.90
57636;DHT22;43465;50.728;4.160;2023-05-10T03:28:01;14.20;99.90
57636;DHT22;43465;50.728;4.160;2023-05-10T03:30:29;14.20;99.90
57636;DHT22;43465;50.728;4.160;2023-05-10T03:32:55;14.20;99.90
57636;DHT22;43465;50.728;4.160;2023-05-10T03:35:22;14.20;99.90
57636;DHT22;43465;50.728;4.160;2023-05-10T03:37:48;14.10;99.90
57636;DHT22;43465;50.728;4.160;2023-05-10T03:40:14;14.10;99.90
57636;DHT22;43465;50.728;4.160;2023-05-10T03:42:40;14.10;99.90
57636;DHT22;43465;50.728;4.160;2023-05-10T03:45:06;14.10;99.90
57636;DHT22;43465;50.728;4.160;2023-05-10T03:47:32;14.20;99.90
57636;DHT22;43465;50.728;4.160;2023-05-10T03:49:58;14.20;99.90
57636;DHT22;43465;50.728;4.160;2023-05-10T03:52:24;14.20;99.90
57636;DHT22;43465;50.728;4.160;2023-05-10T03:54:49;14.20;99.90
57636;DHT22;43465;50.728;4.160;2023-05-10T03:57:15;14.10;99.90
57636;DHT22;43465;50.728;4.160;2023-05-10T03:59:40;14.10;99.90
57636;DHT22;43465;50.728;4.160;2023-05-10T04:02:06;14.10;99.90
57636;DHT22;43465;50.728;4.160;2023-05-10T04:04:32;13.90;99.90
57636;DHT22;43465;50.728;4.160;2023-05-10T04:06:57;13.90;99.90
57636;DHT22;43465;50.728;4.160;2023-05-10T04:09:23;13.90;99.90
57636;DHT22;43465;50.728;4.160;2023-05-10T04:11:49;13.80;99.90
57636;DHT22;43465;50.728;4.160;2023-05-10T04:14:14;13.70;99.90
57636;DHT22;43465;50.728;4.160;2023-05-10T04:16:40;13.60;99.90
57636;DHT22;43465;50.728;4.160;2023-05-10T04:19:06;13.60;99.90
57636;DHT22;43465;50.728;4.160;2023-05-10T04:21:31;13.60;99.90
57636;DHT22;43465;50.728;4.160;2023-05-10T04:23:57;13.60;99.90
57636;DHT22;43465;50.728;4.160;2023-05-10T04:26:23;13.50;99.90
57636;DHT22;43465;50.728;4.160;2023-05-10T04:28:50;13.50;99.90
57636;DHT22;43465;50.728;4.160;2023-05-10T04:31:16;13.40;99.90
57636;DHT22;43465;50.728;4.160;2023-05-10T04:33:42;13.40;99.90
57636;DHT22;43465;50.728;4.160;2023-05-10T04:36:08;13.40;99.90
57636;DHT22;43465;50.728;4.160;2023-05-10T04:38:34;13.40;99.90
57636;DHT22;43465;50.728;4.160;2023-05-10T04:41:07;13.40;99.90
57636;DHT22;43465;50.728;4.160;2023-05-10T04:43:33;13.40;99.90
57636;DHT22;43465;50.728;4.160;2023-05-10T04:45:58;13.40;99.90
57636;DHT22;43465;50.728;4.160;2023-05-10T04:48:24;13.50;99.90
57636;DHT22;43465;50.728;4.160;2023-05-10T04:50:49;13.50;99.90
57636;DHT22;43465;50.728;4.160;2023-05-10T04:53:15;13.40;99.90
57636;DHT22;43465;50.728;4.160;2023-05-10T04:55:41;13.50;99.90
57636;DHT22;43465;50.728;4.160;2023-05-10T04:58:07;13.50;99.90
57636;DHT22;43465;50.728;4.160;2023-05-10T05:00:35;13.50;99.90
57636;DHT22;43465;50.728;4.160;2023-05-10T05:03:01;13.40;99.90
57636;DHT22;43465;50.728;4.160;2023-05-10T05:05:27;13.50;99.90
57636;DHT22;43465;50.728;4.160;2023-05-10T05:07:52;13.50;99.90
57636;DHT22;43465;50.728;4.160;2023-05-10T05:10:18;13.50;99.90
57636;DHT22;43465;50.728;4.160;2023-05-10T05:12:43;13.60;99.90
57636;DHT22;43465;50.728;4.160;2023-05-10T05:15:10;13.60;99.90
57636;DHT22;43465;50.728;4.160;2023-05-10T05:17:36;13.60;99.90
57636;DHT22;43465;50.728;4.160;2023-05-10T05:20:02;13.50;99.90
57636;DHT22;43465;50.728;4.160;2023-05-10T05:22:28;13.50;99.90
57636;DHT22;43465;50.728;4.160;2023-05-10T05:24:55;13.40;99.90
57636;DHT22;43465;50.728;4.160;2023-05-10T05:27:20;13.40;99.90
57636;DHT22;43465;50.728;4.160;2023-05-10T05:29:56;13.40;99.90
57636;DHT22;43465;50.728;4.160;2023-05-10T05:32:22;13.40;99.90
57636;DHT22;43465;50.728;4.160;2023-05-10T05:34:48;13.40;99.90
57636;DHT22;43465;50.728;4.160;2023-05-10T05:37:18;13.40;99.90
57636;DHT22;43465;50.728;4.160;2023-05-10T05:39:44;13.30;99.90
57636;DHT22;43465;50.728;4.160;2023-05-10T05:42:11;13.30;99.90
57636;DHT22;43465;50.728;4.160;2023-05-10T05:44:37;13.30;99.90
57636;DHT22;43465;50.728;4.160;2023-05-10T05:47:03;13.30;99.90
57636;DHT22;43465;50.728;4.160;2023-05-10T05:49:29;13.30;99.90
57636;DHT22;43465;50.728;4.160;2023-05-10T05:52:01;13.30;99.90
57636;DHT22;43465;50.728;4.160;2023-05-10T05:54:28;13.30;99.90
57636;DHT22;43465;50.728;4.160;2023-05-10T05:56:58;13.30;99.90
57636;DHT22;43465;50.728;4.160;2023-05-10T05:59:24;13.30;99.90
57636;DHT22;43465;50.728;4.160;2023-05-10T06:01:49;13.30;99.90
57636;DHT22;43465;50.728;4.160;2023-05-10T06:04:15;13.30;99.90
57636;DHT22;43465;50.728;4.160;2023-05-10T06:06:41;13.30;99.90
57636;DHT22;43465;50.728;4.160;2023-05-10T06:09:08;13.20;99.90
57636;DHT22;43465;50.728;4.160;2023-05-10T06:11:34;13.20;99.90
57636;DHT22;43465;50.728;4.160;2023-05-10T06:14:00;13.30;99.90
57636;DHT22;43465;50.728;4.160;2023-05-10T06:16:26;13.30;99.90
57636;DHT22;43465;50.728;4.160;2023-05-10T06:18:51;13.30;99.90
57636;DHT22;43465;50.728;4.160;2023-05-10T06:21:17;13.30;99.90
57636;DHT22;43465;50.728;4.160;2023-05-10T06:23:43;13.30;99.90
57636;DHT22;43465;50.728;4.160;2023-05-10T06:26:09;13.20;99.90
57636;DHT22;43465;50.728;4.160;2023-05-10T06:28:35;13.20;99.90
57636;DHT22;43465;50.728;4.160;2023-05-10T06:31:03;13.20;99.90
57636;DHT22;43465;50.728;4.160;2023-05-10T06:33:29;13.30;99.90
57636;DHT22;43465;50.728;4.160;2023-05-10T06:35:55;13.20;99.90
57636;DHT22;43465;50.728;4.160;2023-05-10T06:38:21;13.20;99.90
57636;DHT22;43465;50.728;4.160;2023-05-10T06:40:47;13.20;99.90
57636;DHT22;43465;50.728;4.160;2023-05-10T06:43:12;13.20;99.90
57636;DHT22;43465;50.728;4.160;2023-05-10T06:45:38;13.20;99.90
57636;DHT22;43465;50.728;4.160;2023-05-10T06:48:04;13.30;99.90
57636;DHT22;43465;50.728;4.160;2023-05-10T06:50:30;13.30;99.90
57636;DHT22;43465;50.728;4.160;2023-05-10T06:52:55;13.30;99.90
57636;DHT22;43465;50.728;4.160;2023-05-10T06:55:21;13.40;99.90
57636;DHT22;43465;50.728;4.160;2023-05-10T06:57:47;13.30;99.90
57636;DHT22;43465;50.728;4.160;2023-05-10T07:00:13;13.20;99.90
57636;DHT22;43465;50.728;4.160;2023-05-10T07:02:39;13.10;99.90
57636;DHT22;43465;50.728;4.160;2023-05-10T07:05:06;13.00;99.90
57636;DHT22;43465;50.728;4.160;2023-05-10T07:07:31;12.90;99.90
57636;DHT22;43465;50.728;4.160;2023-05-10T07:09:57;12.80;99.90
57636;DHT22;43465;50.728;4.160;2023-05-10T07:12:24;12.80;99.90
57636;DHT22;43465;50.728;4.160;2023-05-10T07:14:49;12.70;99.90
57636;DHT22;43465;50.728;4.160;2023-05-10T07:17:15;12.70;99.90
57636;DHT22;43465;50.728;4.160;2023-05-10T07:19:41;12.70;99.90
57636;DHT22;43465;50.728;4.160;2023-05-10T07:22:06;12.70;99.90
57636;DHT22;43465;50.728;4.160;2023-05-10T07:24:33;12.80;99.90
57636;DHT22;43465;50.728;4.160;2023-05-10T07:26:59;12.70;99.90
57636;DHT22;43465;50.728;4.160;2023-05-10T07:29:24;12.80;99.90
57636;DHT22;43465;50.728;4.160;2023-05-10T07:31:50;12.80;99.90
57636;DHT22;43465;50.728;4.160;2023-05-10T07:34:16;12.80;99.90
57636;DHT22;43465;50.728;4.160;2023-05-10T07:36:41;12.80;99.90
57636;DHT22;43465;50.728;4.160;2023-05-10T07:39:07;12.80;99.90
57636;DHT22;43465;50.728;4.160;2023-05-10T07:41:33;12.80;99.90
57636;DHT22;43465;50.728;4.160;2023-05-10T07:43:58;12.80;99.90
57636;DHT22;43465;50.728;4.160;2023-05-10T07:46:24;12.90;99.90
57636;DHT22;43465;50.728;4.160;2023-05-10T07:48:50;12.90;99.90
57636;DHT22;43465;50.728;4.160;2023-05-10T07:51:15;12.90;99.90
57636;DHT22;43465;50.728;4.160;2023-05-10T07:53:41;12.90;99.90
57636;DHT22;43465;50.728;4.160;2023-05-10T07:56:27;12.90;99.90
57636;DHT22;43465;50.728;4.160;2023-05-10T07:58:55;12.90;99.90
57636;DHT22;43465;50.728;4.160;2023-05-10T08:01:22;12.90;99.90
57636;DHT22;43465;50.728;4.160;2023-05-10T08:03:48;12.90;99.90
57636;DHT22;43465;50.728;4.160;2023-05-10T08:06:15;12.90;99.90
57636;DHT22;43465;50.728;4.160;2023-05-10T08:08:41;12.90;99.90
57636;DHT22;43465;50.728;4.160;2023-05-10T08:11:07;12.90;99.90
57636;DHT22;43465;50.728;4.160;2023-05-10T08:13:32;12.80;99.90
57636;DHT22;43465;50.728;4.160;2023-05-10T08:15:58;12.80;99.90
57636;DHT22;43465;50.728;4.160;2023-05-10T08:18:24;12.80;99.90
57636;DHT22;43465;50.728;4.160;2023-05-10T08:20:50;12.80;99.90
57636;DHT22;43465;50.728;4.160;2023-05-10T08:23:15;12.80;99.90
57636;DHT22;43465;50.728;4.160;2023-05-10T08:25:41;12.80;99.90
57636;DHT22;43465;50.728;4.160;2023-05-10T08:28:07;12.80;99.90
57636;DHT22;43465;50.728;4.160;2023-05-10T08:30:32;12.80;99.90
57636;DHT22;43465;50.728;4.160;2023-05-10T08:32:58;12.80;99.90
57636;DHT22;43465;50.728;4.160;2023-05-10T08:35:23;12.80;99.90
57636;DHT22;43465;50.728;4.160;2023-05-10T08:37:51;12.80;99.90
57636;DHT22;43465;50.728;4.160;2023-05-10T08:40:19;12.80;99.90
57636;DHT22;43465;50.728;4.160;2023-05-10T08:42:51;12.80;99.90
57636;DHT22;43465;50.728;4.160;2023-05-10T08:45:23;12.90;99.90
57636;DHT22;43465;50.728;4.160;2023-05-10T08:47:50;12.90;99.90
57636;DHT22;43465;50.728;4.160;2023-05-10T08:50:19;12.90;99.90
57636;DHT22;43465;50.728;4.160;2023-05-10T08:52:48;12.90;99.90
57636;DHT22;43465;50.728;4.160;2023-05-10T08:55:16;13.00;99.90
57636;DHT22;43465;50.728;4.160;2023-05-10T08:57:42;13.00;99.90
57636;DHT22;43465;50.728;4.160;2023-05-10T09:00:08;13.00;99.90
57636;DHT22;43465;50.728;4.160;2023-05-10T09:02:35;13.00;99.90
57636;DHT22;43465;50.728;4.160;2023-05-10T09:05:02;13.00;99.90
57636;DHT22;43465;50.728;4.160;2023-05-10T09:07:30;13.00;99.90
57636;DHT22;43465;50.728;4.160;2023-05-10T09:09:56;13.10;99.90
57636;DHT22;43465;50.728;4.160;2023-05-10T09:12:22;13.10;99.90
57636;DHT22;43465;50.728;4.160;2023-05-10T09:14:50;13.00;99.90
57636;DHT22;43465;50.728;4.160;2023-05-10T09:17:16;13.00;99.90
57636;DHT22;43465;50.728;4.160;2023-05-10T09:19:42;13.00;99.90
57636;DHT22;43465;50.728;4.160;2023-05-10T09:22:07;13.10;99.90
57636;DHT22;43465;50.728;4.160;2023-05-10T09:24:33;13.20;99.90
57636;DHT22;43465;50.728;4.160;2023-05-10T09:26:59;13.30;99.90
57636;DHT22;43465;50.728;4.160;2023-05-10T09:29:25;13.40;99.90
57636;DHT22;43465;50.728;4.160;2023-05-10T09:31:52;13.60;99.90
57636;DHT22;43465;50.728;4.160;2023-05-10T09:34:29;13.60;99.90
57636;DHT22;43465;50.728;4.160;2023-05-10T09:37:00;13.60;99.90
57636;DHT22;43465;50.728;4.160;2023-05-10T09:39:33;13.70;99.90
57636;DHT22;43465;50.728;4.160;2023-05-10T09:42:02;13.70;99.90
57636;DHT22;43465;50.728;4.160;2023-05-10T09:44:29;13.80;99.90
57636;DHT22;43465;50.728;4.160;2023-05-10T09:46:55;13.80;99.90
57636;DHT22;43465;50.728;4.160;2023-05-10T09:49:21;13.90;99.90
57636;DHT22;43465;50.728;4.160;2023-05-10T09:51:47;13.90;99.90
57636;DHT22;43465;50.728;4.160;2023-05-10T09:54:22;14.00;99.90
57636;DHT22;43465;50.728;4.160;2023-05-10T09:56:49;14.10;99.90
57636;DHT22;43465;50.728;4.160;2023-05-10T09:59:14;14.10;99.90
57636;DHT22;43465;50.728;4.160;2023-05-10T10:01:40;14.20;99.90
57636;DHT22;43465;50.728;4.160;2023-05-10T10:04:08;14.30;99.90
57636;DHT22;43465;50.728;4.160;2023-05-10T10:06:38;14.30;99.90
57636;DHT22;43465;50.728;4.160;2023-05-10T10:09:08;14.30;99.90
57636;DHT22;43465;50.728;4.160;2023-05-10T10:11:38;14.40;99.90
57636;DHT22;43465;50.728;4.160;2023-05-10T10:14:05;14.50;99.90
57636;DHT22;43465;50.728;4.160;2023-05-10T10:16:31;14.50;99.90
57636;DHT22;43465;50.728;4.160;2023-05-10T10:18:57;14.70;99.90
57636;DHT22;43465;50.728;4.160;2023-05-10T10:21:23;14.70;99.90
57636;DHT22;43465;50.728;4.160;2023-05-10T10:23:50;14.80;99.90
57636;DHT22;43465;50.728;4.160;2023-05-10T10:26:17;14.90;99.90
57636;DHT22;43465;50.728;4.160;2023-05-10T10:31:47;14.90;99.90
57636;DHT22;43465;50.728;4.160;2023-05-10T10:34:29;15.00;99.90
57636;DHT22;43465;50.728;4.160;2023-05-10T10:36:56;15.10;99.90
57636;DHT22;43465;50.728;4.160;2023-05-10T10:39:23;15.20;99.90
57636;DHT22;43465;50.728;4.160;2023-05-10T10:41:52;15.20;99.90
57636;DHT22;43465;50.728;4.160;2023-05-10T10:52:21;15.50;99.90
57636;DHT22;43465;50.728;4.160;2023-05-10T10:55:13;15.70;99.90
57636;DHT22;43465;50.728;4.160;2023-05-10T10:57:57;15.80;99.90
57636;DHT22;43465;50.728;4.160;2023-05-10T11:00:38;15.90;99.90
57636;DHT22;43465;50.728;4.160;2023-05-10T11:03:10;16.00;99.90
57636;DHT22;43465;50.728;4.160;2023-05-10T11:05:39;16.20;99.90
57636;DHT22;43465;50.728;4.160;2023-05-10T11:08:15;16.20;99.90
57636;DHT22;43465;50.728;4.160;2023-05-10T11:13:31;16.50;99.90
57636;DHT22;43465;50.728;4.160;2023-05-10T11:15:57;16.50;99.90
57636;DHT22;43465;50.728;4.160;2023-05-10T11:18:29;16.60;99.90
57636;DHT22;43465;50.728;4.160;2023-05-10T11:20:58;16.60;99.90
57636;DHT22;43465;50.728;4.160;2023-05-10T11:23:30;16.60;99.90
57636;DHT22;43465;50.728;4.160;2023-05-10T11:25:56;16.70;99.90
57636;DHT22;43465;50.728;4.160;2023-05-10T11:28:22;16.70;99.90
57636;DHT22;43465;50.728;4.160;2023-05-10T11:30:48;16.60;99.90
57636;DHT22;43465;50.728;4.160;2023-05-10T11:33:18;16.60;99.90
57636;DHT22;43465;50.728;4.160;2023-05-10T11:35:45;16.70;99.90
57636;DHT22;43465;50.728;4.160;2023-05-10T11:38:12;16.80;99.90
57636;DHT22;43465;50.728;4.160;2023-05-10T11:40:39;16.80;99.90
57636;DHT22;43465;50.728;4.160;2023-05-10T11:43:05;16.80;99.90
57636;DHT22;43465;50.728;4.160;2023-05-10T11:45:35;16.90;99.90
57636;DHT22;43465;50.728;4.160;2023-05-10T11:48:02;16.90;99.90
57636;DHT22;43465;50.728;4.160;2023-05-10T11:50:28;17.00;99.90
57636;DHT22;43465;50.728;4.160;2023-05-10T11:52:55;17.10;99.90
57636;DHT22;43465;50.728;4.160;2023-05-10T11:55:21;17.10;99.90
57636;DHT22;43465;50.728;4.160;2023-05-10T11:57:47;17.20;99.90
57636;DHT22;43465;50.728;4.160;2023-05-10T12:00:14;17.20;99.90
57636;DHT22;43465;50.728;4.160;2023-05-10T12:02:39;17.20;99.90
57636;DHT22;43465;50.728;4.160;2023-05-10T12:05:06;17.20;99.90
57636;DHT22;43465;50.728;4.160;2023-05-10T12:07:32;17.20;99.90
57636;DHT22;43465;50.728;4.160;2023-05-10T12:10:07;17.20;99.90
57636;DHT22;43465;50.728;4.160;2023-05-10T12:12:52;17.20;99.90
57636;DHT22;43465;50.728;4.160;2023-05-10T12:15:23;17.20;99.90
57636;DHT22;43465;50.728;4.160;2023-05-10T12:17:49;17.20;99.90
57636;DHT22;43465;50.728;4.160;2023-05-10T12:20:18;17.10;99.90
57636;DHT22;43465;50.728;4.160;2023-05-10T12:22:45;17.20;99.90
57636;DHT22;43465;50.728;4.160;2023-05-10T12:25:11;17.30;99.90
57636;DHT22;43465;50.728;4.160;2023-05-10T12:27:37;17.30;99.90
57636;DHT22;43465;50.728;4.160;2023-05-10T12:30:03;17.30;99.90
57636;DHT22;43465;50.728;4.160;2023-05-10T12:32:41;17.40;99.90
57636;DHT22;43465;50.728;4.160;2023-05-10T12:35:07;17.50;99.90
57636;DHT22;43465;50.728;4.160;2023-05-10T12:37:34;17.50;99.90
57636;DHT22;43465;50.728;4.160;2023-05-10T12:40:05;17.60;99.90
57636;DHT22;43465;50.728;4.160;2023-05-10T12:42:32;17.70;99.90
57636;DHT22;43465;50.728;4.160;2023-05-10T12:44:57;17.80;99.90
57636;DHT22;43465;50.728;4.160;2023-05-10T12:47:23;17.90;99.90
57636;DHT22;43465;50.728;4.160;2023-05-10T12:49:49;18.00;99.90
57636;DHT22;43465;50.728;4.160;2023-05-10T12:52:14;18.10;99.90
57636;DHT22;43465;50.728;4.160;2023-05-10T12:54:40;18.10;99.90
57636;DHT22;43465;50.728;4.160;2023-05-10T12:57:06;18.20;99.90
57636;DHT22;43465;50.728;4.160;2023-05-10T12:59:31;18.30;99.90
57636;DHT22;43465;50.728;4.160;2023-05-10T13:01:57;18.30;99.90
57636;DHT22;43465;50.728;4.160;2023-05-10T13:04:23;18.40;99.90
57636;DHT22;43465;50.728;4.160;2023-05-10T13:06:49;18.40;99.90
57636;DHT22;43465;50.728;4.160;2023-05-10T13:09:15;18.50;99.90
57636;DHT22;43465;50.728;4.160;2023-05-10T13:11:40;18.50;99.90
57636;DHT22;43465;50.728;4.160;2023-05-10T13:14:06;18.60;99.90
57636;DHT22;43465;50.728;4.160;2023-05-10T13:16:32;18.70;99.90
57636;DHT22;43465;50.728;4.160;2023-05-10T13:18:58;18.70;99.90
57636;DHT22;43465;50.728;4.160;2023-05-10T13:21:23;18.70;99.90
57636;DHT22;43465;50.728;4.160;2023-05-10T13:23:50;18.70;99.90
57636;DHT22;43465;50.728;4.160;2023-05-10T13:26:16;18.90;99.90
57636;DHT22;43465;50.728;4.160;2023-05-10T13:28:42;18.90;99.90
57636;DHT22;43465;50.728;4.160;2023-05-10T13:31:07;19.00;99.90
57636;DHT22;43465;50.728;4.160;2023-05-10T13:33:33;19.10;99.90
57636;DHT22;43465;50.728;4.160;2023-05-10T13:35:59;19.10;99.90
57636;DHT22;43465;50.728;4.160;2023-05-10T13:38:24;19.30;99.90
57636;DHT22;43465;50.728;4.160;2023-05-10T13:40:50;19.30;99.90
57636;DHT22;43465;50.728;4.160;2023-05-10T13:43:18;19.30;99.90
57636;DHT22;43465;50.728;4.160;2023-05-10T13:45:44;19.40;99.90
57636;DHT22;43465;50.728;4.160;2023-05-10T13:48:10;19.50;99.90
57636;DHT22;43465;50.728;4.160;2023-05-10T13:50:35;19.60;99.90
57636;DHT22;43465;50.728;4.160;2023-05-10T13:53:01;19.70;99.90
57636;DHT22;43465;50.728;4.160;2023-05-10T13:55:27;19.70;99.90
57636;DHT22;43465;50.728;4.160;2023-05-10T13:57:52;19.70;99.90
57636;DHT22;43465;50.728;4.160;2023-05-10T14:00:18;19.60;99.90
57636;DHT22;43465;50.728;4.160;2023-05-10T14:02:44;19.50;99.90
57636;DHT22;43465;50.728;4.160;2023-05-10T14:05:09;19.40;99.90
57636;DHT22;43465;50.728;4.160;2023-05-10T14:07:35;19.30;99.90
57636;DHT22;43465;50.728;4.160;2023-05-10T14:10:01;19.20;99.90
57636;DHT22;43465;50.728;4.160;2023-05-10T14:12:27;19.10;99.90
57636;DHT22;43465;50.728;4.160;2023-05-10T14:14:53;18.90;99.90
57636;DHT22;43465;50.728;4.160;2023-05-10T14:17:18;18.90;99.90
57636;DHT22;43465;50.728;4.160;2023-05-10T14:19:44;18.80;99.90
57636;DHT22;43465;50.728;4.160;2023-05-10T14:22:10;18.80;99.90
57636;DHT22;43465;50.728;4.160;2023-05-10T14:24:36;18.70;99.90
57636;DHT22;43465;50.728;4.160;2023-05-10T14:27:01;18.60;99.90
57636;DHT22;43465;50.728;4.160;2023-05-10T14:29:27;18.50;99.90
57636;DHT22;43465;50.728;4.160;2023-05-10T14:31:52;18.40;99.90
57636;DHT22;43465;50.728;4.160;2023-05-10T14:34:18;18.40;99.90
57636;DHT22;43465;50.728;4.160;2023-05-10T14:36:44;18.30;99.90
57636;DHT22;43465;50.728;4.160;2023-05-10T14:39:09;18.10;99.90
57636;DHT22;43465;50.728;4.160;2023-05-10T14:41:38;18.10;99.90
57636;DHT22;43465;50.728;4.160;2023-05-10T14:44:04;18.00;99.90
57636;DHT22;43465;50.728;4.160;2023-05-10T14:46:30;17.80;99.90
57636;DHT22;43465;50.728;4.160;2023-05-10T14:48:56;17.70;99.90
57636;DHT22;43465;50.728;4.160;2023-05-10T14:51:21;17.50;99.90
57636;DHT22;43465;50.728;4.160;2023-05-10T14:53:48;17.30;99.90
57636;DHT22;43465;50.728;4.160;2023-05-10T14:56:15;17.30;99.90
57636;DHT22;43465;50.728;4.160;2023-05-10T14:58:40;17.30;99.90
57636;DHT22;43465;50.728;4.160;2023-05-10T15:01:06;17.30;99.90
57636;DHT22;43465;50.728;4.160;2023-05-10T15:03:32;17.20;99.90
57636;DHT22;43465;50.728;4.160;2023-05-10T15:05:57;17.20;99.90
57636;DHT22;43465;50.728;4.160;2023-05-10T15:08:26;17.30;99.90
57636;DHT22;43465;50.728;4.160;2023-05-10T15:10:51;17.30;99.90
57636;DHT22;43465;50.728;4.160;2023-05-10T15:13:17;17.30;99.90
57636;DHT22;43465;50.728;4.160;2023-05-10T15:15:43;17.30;99.90
57636;DHT22;43465;50.728;4.160;2023-05-10T15:18:09;17.40;99.90
57636;DHT22;43465;50.728;4.160;2023-05-10T15:20:35;17.40;99.90
57636;DHT22;43465;50.728;4.160;2023-05-10T15:23:01;17.40;99.90
57636;DHT22;43465;50.728;4.160;2023-05-10T15:25:26;17.50;99.90
57636;DHT22;43465;50.728;4.160;2023-05-10T15:27:53;17.50;99.90
57636;DHT22;43465;50.728;4.160;2023-05-10T15:30:18;17.50;99.90
57636;DHT22;43465;50.728;4.160;2023-05-10T15:32:44;17.50;99.90
57636;DHT22;43465;50.728;4.160;2023-05-10T15:35:10;17.60;99.90
57636;DHT22;43465;50.728;4.160;2023-05-10T15:37:36;17.70;99.90
57636;DHT22;43465;50.728;4.160;2023-05-10T15:40:02;17.80;99.90
57636;DHT22;43465;50.728;4.160;2023-05-10T15:42:29;17.90;99.90
57636;DHT22;43465;50.728;4.160;2023-05-10T15:44:58;18.10;99.90
57636;DHT22;43465;50.728;4.160;2023-05-10T15:47:25;18.60;99.90
57636;DHT22;43465;50.728;4.160;2023-05-10T15:49:51;19.00;99.90
57636;DHT22;43465;50.728;4.160;2023-05-10T15:52:16;19.20;99.90
57636;DHT22;43465;50.728;4.160;2023-05-10T15:54:43;19.50;99.90
57636;DHT22;43465;50.728;4.160;2023-05-10T15:57:09;19.80;99.90
57636;DHT22;43465;50.728;4.160;2023-05-10T15:59:35;19.90;99.90